Weather reports worldwide

Advertisment
Frittenden, United Kingdom (99182): temperature & dewpoint: 14.10.2018 15:00:00 - 20.10.2018 15:00:00 (BST)Frittenden, United Kingdom (99182): precipitation: 14.10.2018 15:00:00 - 20.10.2018 15:00:00 (BST)
Date & Time tt [°C] td [°C] rr [mm]
20.10.2018 15:00:00 - - -
20.10.2018 14:00:00 17,1 10,0 0,0
20.10.2018 13:00:00 15,7 9,1 0,0
20.10.2018 12:00:00 15,2 9,1 0,0
20.10.2018 11:00:00 11,5 10,4 0,0
20.10.2018 10:00:00 7,2 7,2 0,0
20.10.2018 09:00:00 4,5 4,5 0,0
20.10.2018 08:00:00 2,4 2,4 0,0
20.10.2018 07:00:00 2,7 2,7 0,0
20.10.2018 06:00:00 3,8 3,8 0,0
20.10.2018 05:00:00 3,4 3,3 0,0
20.10.2018 04:00:00 3,1 2,9 0,0
20.10.2018 03:00:00 4,3 4,3 0,0
20.10.2018 02:00:00 4,0 3,9 0,0
20.10.2018 01:00:00 5,9 5,9 0,0
20.10.2018 00:00:00 4,6 4,4 0,0
19.10.2018 23:00:00 5,0 4,5 0,0
19.10.2018 22:00:00 6,5 6,2 0,0
19.10.2018 21:00:00 7,5 6,9 0,0
19.10.2018 20:00:00 8,5 7,7 0,0
19.10.2018 19:00:00 9,5 8,0 0,0
19.10.2018 18:00:00 12,0 8,2 0,0
19.10.2018 17:00:00 14,2 8,5 0,0
19.10.2018 16:00:00 15,2 9,6 0,0
19.10.2018 15:00:00 15,1 9,5 0,0
19.10.2018 14:00:00 16,1 9,8 0,0
19.10.2018 13:00:00 14,3 9,3 0,0
19.10.2018 12:00:00 15,5 10,3 0,0
19.10.2018 11:00:00 12,8 9,6 0,0
19.10.2018 10:00:00 9,1 7,6 0,0
19.10.2018 09:00:00 7,5 7,2 0,0
19.10.2018 08:00:00 6,4 6,0 0,0
19.10.2018 07:00:00 6,6 6,0 0,0
19.10.2018 06:00:00 7,2 6,5 0,0
19.10.2018 05:00:00 7,0 6,1 0,0
19.10.2018 04:00:00 6,8 5,9 0,0
19.10.2018 03:00:00 7,8 6,6 0,0
19.10.2018 02:00:00 7,6 6,5 0,0
19.10.2018 01:00:00 7,5 6,5 0,0
19.10.2018 00:00:00 7,4 6,6 0,0
18.10.2018 23:00:00 7,8 6,6 0,0
18.10.2018 22:00:00 9,2 6,5 0,0
18.10.2018 21:00:00 10,4 7,0 0,0
18.10.2018 20:00:00 10,8 7,7 0,0
18.10.2018 19:00:00 10,7 7,7 0,0
18.10.2018 18:00:00 12,2 8,5 0,0
18.10.2018 17:00:00 13,3 8,9 0,0
18.10.2018 16:00:00 14,6 9,8 0,0
18.10.2018 15:00:00 14,8 9,8 0,0
18.10.2018 14:00:00 15,7 10,4 0,0
18.10.2018 13:00:00 14,7 10,6 0,0
18.10.2018 12:00:00 15,4 11,3 0,0
18.10.2018 11:00:00 13,4 10,8 0,0
18.10.2018 10:00:00 12,0 10,6 0,0
18.10.2018 09:00:00 11,5 10,6 0,0
18.10.2018 08:00:00 10,9 10,3 0,0
18.10.2018 07:00:00 11,1 10,4 0,0
18.10.2018 06:00:00 10,8 10,2 0,0
18.10.2018 05:00:00 11,1 10,1 0,0
18.10.2018 04:00:00 11,5 10,1 0,0
18.10.2018 03:00:00 12,2 10,3 0,0
18.10.2018 02:00:00 13,1 11,9 0,0
18.10.2018 01:00:00 13,3 12,1 0,0
18.10.2018 00:00:00 13,2 12,3 0,0
17.10.2018 23:00:00 13,3 12,4 0,0
17.10.2018 22:00:00 13,3 12,3 0,0
17.10.2018 21:00:00 14,0 12,9 0,0
17.10.2018 20:00:00 14,4 12,8 0,0
17.10.2018 19:00:00 14,4 12,7 0,0
17.10.2018 18:00:00 15,1 12,7 0,0
17.10.2018 17:00:00 16,1 12,7 0,0
17.10.2018 16:00:00 16,8 13,1 0,0
17.10.2018 15:00:00 16,5 13,1 0,0
17.10.2018 14:00:00 16,9 12,7 0,0
17.10.2018 13:00:00 16,7 12,2 0,0
17.10.2018 12:00:00 16,9 11,3 0,0
17.10.2018 11:00:00 15,8 11,9 0,0
17.10.2018 10:00:00 13,2 12,1 0,2
17.10.2018 09:00:00 10,5 10,4 0,0
17.10.2018 08:00:00 8,9 8,7 0,0
17.10.2018 07:00:00 9,5 9,4 0,0
17.10.2018 06:00:00 10,1 10,0 0,0
17.10.2018 05:00:00 10,2 10,0 0,0
17.10.2018 04:00:00 10,9 10,5 0,0
17.10.2018 03:00:00 12,0 11,5 0,0
17.10.2018 02:00:00 12,8 12,6 0,0
17.10.2018 01:00:00 12,2 12,0 0,0
17.10.2018 00:00:00 12,5 11,8 0,0
16.10.2018 23:00:00 13,8 12,5 0,0
16.10.2018 22:00:00 13,9 13,2 0,0
16.10.2018 21:00:00 14,0 13,0 0,0
16.10.2018 20:00:00 13,5 12,5 0,0
16.10.2018 19:00:00 14,0 12,5 0,0
16.10.2018 18:00:00 14,7 12,2 0,0
16.10.2018 17:00:00 17,1 13,5 0,0
16.10.2018 16:00:00 19,3 13,7 0,0
16.10.2018 15:00:00 20,0 12,9 0,0
16.10.2018 14:00:00 20,6 13,3 0,0
16.10.2018 13:00:00 21,0 13,9 0,0
16.10.2018 12:00:00 20,4 13,9 0,0
16.10.2018 11:00:00 19,0 14,9 0,0
16.10.2018 10:00:00 14,2 14,2 0,0
16.10.2018 09:00:00 12,8 12,8 0,0
16.10.2018 08:00:00 13,2 13,2 0,0
16.10.2018 07:00:00 13,7 13,6 0,0
16.10.2018 06:00:00 14,1 14,1 0,0
16.10.2018 05:00:00 14,4 14,4 0,0
16.10.2018 04:00:00 14,5 14,5 0,0
16.10.2018 03:00:00 14,5 14,5 0,0
16.10.2018 02:00:00 14,4 14,4 0,0
16.10.2018 01:00:00 14,3 14,3 0,0
16.10.2018 00:00:00 14,3 14,2 0,0
15.10.2018 23:00:00 14,3 14,2 0,0
15.10.2018 22:00:00 14,3 14,2 0,0
15.10.2018 21:00:00 14,5 14,4 0,0
15.10.2018 20:00:00 14,7 14,5 0,0
15.10.2018 19:00:00 15,5 15,0 0,0
15.10.2018 18:00:00 16,1 15,2 0,0
15.10.2018 17:00:00 17,0 15,4 0,0
15.10.2018 16:00:00 16,7 15,2 0,0
15.10.2018 15:00:00 17,0 15,5 0,0
15.10.2018 14:00:00 17,8 15,7 0,0
15.10.2018 13:00:00 17,0 15,7 0,0
15.10.2018 12:00:00 16,9 15,9 0,0
15.10.2018 11:00:00 15,7 15,2 0,0
15.10.2018 10:00:00 15,4 15,4 0,0
15.10.2018 09:00:00 14,1 14,1 0,0
15.10.2018 08:00:00 13,7 13,6 0,0
15.10.2018 07:00:00 13,8 13,7 0,0
15.10.2018 06:00:00 13,6 13,6 0,0
15.10.2018 05:00:00 13,2 13,2 0,0
15.10.2018 04:00:00 13,1 12,7 0,0
15.10.2018 03:00:00 13,4 13,1 0,0
15.10.2018 02:00:00 12,8 12,6 0,0
15.10.2018 01:00:00 12,0 11,7 0,6
15.10.2018 00:00:00 11,6 11,1 0,4
14.10.2018 23:00:00 11,4 11,1 3,6
14.10.2018 22:00:00 11,3 11,0 4,2
14.10.2018 21:00:00 11,6 11,0 0,0
14.10.2018 20:00:00 11,8 11,2 0,0
14.10.2018 19:00:00 12,2 11,6 0,2
14.10.2018 18:00:00 12,6 12,1 0,2
14.10.2018 17:00:00 13,1 12,5 0,2
14.10.2018 16:00:00 14,0 12,6 0,0
14.10.2018 15:00:00 15,0 13,0 0,0

tt = temperature
td = dewpoint
rr = precipitation

Next stations